Time;durP1;ratioP1;P1;durP2;ratioP2;P2;SDS_P1;SDS_P2;PMS_P1;PMS_P2;Temp;Humidity;BMP_temperature;BMP_pressure;BME280_temperature;BME280_humidity;BME280_pressure;Samples;Min_cycle;Max_cycle;Signal;HPM_P1;HPM_P2
2022/05/02 00:00:50;;;;;;;;;;;;;;;7.67;66.68;97569.97;109574;1250;67678;-67
2022/05/02 00:03:20;;;;;;;;;;;;;;;7.64;66.43;97568.20;109850;1249;69267;-68
2022/05/02 00:05:50;;;;;;;;;;;;;;;7.61;67.07;97567.49;109642;1250;59776;-66
2022/05/02 00:08:19;;;;;;;;;;;;;;;7.60;66.75;97570.72;109795;1250;59701;-67
2022/05/02 00:10:49;;;;;;;;;;;;;;;7.59;66.83;97570.28;109587;1252;69868;-68
2022/05/02 00:13:18;;;;;;;;;;;;;;;7.59;65.45;97567.14;109600;1252;68595;-66
2022/05/02 00:15:48;;;;;;;;;;;;;;;7.60;64.66;97564.48;109610;1252;69444;-67
2022/05/02 00:18:19;;;;;;;;;;;;;;;7.62;64.89;97567.77;109577;1253;60152;-68
2022/05/02 00:20:48;;;;;;;;;;;;;;;7.64;64.46;97563.70;109636;1251;59659;-69
2022/05/02 00:23:17;;;;;;;;;;;;;;;7.68;64.64;97560.00;109616;1251;70575;-67
2022/05/02 00:25:47;;;;;;;;;;;;;;;7.74;64.16;97563.52;109629;1251;66818;-67
2022/05/02 00:28:17;;;;;;;;;;;;;;;7.78;64.40;97565.84;109631;1250;69526;-68
2022/05/02 00:30:47;;;;;;;;;;;;;;;7.79;64.23;97567.16;109676;1249;59756;-66
2022/05/02 00:33:20;;;;;;;;;;;;;;;7.79;65.14;97566.52;109857;1250;59767;-66
2022/05/02 00:35:49;;;;;;;;;;;;;;;7.74;66.48;97563.85;109838;1250;71401;-68
2022/05/02 00:38:19;;;;;;;;;;;;;;;7.69;66.32;97563.11;109822;1249;67785;-68
2022/05/02 00:40:50;;;;;;;;;;;;;;;7.62;65.62;97560.73;109491;1254;69251;-68
2022/05/02 00:43:19;;;;;;;;;;;;;;;7.57;65.44;97563.08;109634;1251;59765;-67
2022/05/02 00:45:50;;;;;;;;;;;;;;;7.53;67.83;97563.69;109619;1250;59708;-67
2022/05/02 00:48:21;;;;;;;;;;;;;;;7.48;67.42;97563.30;109625;1251;70663;-67
2022/05/02 00:50:52;;;;;;;;;;;;;;;7.43;68.39;97562.50;109596;1251;68436;-69
2022/05/02 00:53:24;;;;;;;;;;;;;;;7.40;68.96;97565.13;109611;1251;69396;-69
2022/05/02 00:55:54;;;;;;;;;;;;;;;7.38;67.21;97562.29;109742;1250;59727;-68
2022/05/02 00:58:24;;;;;;;;;;;;;;;7.40;67.04;97559.76;109576;1252;59723;-68
2022/05/02 01:00:55;;;;;;;;;;;;;;;7.44;67.91;97560.20;109616;1251;70751;-67
2022/05/02 01:03:28;;;;;;;;;;;;;;;7.50;67.82;97562.30;109602;1252;68543;-68
2022/05/02 01:08:47;;;;;;;;;;;;;;;7.55;65.78;97562.00;109693;1251;60217;-69
2022/05/02 01:11:17;;;;;;;;;;;;;;;7.55;67.22;97561.30;109830;1249;60158;-70
2022/05/02 01:13:48;;;;;;;;;;;;;;;7.51;68.54;97560.33;109835;1249;72268;-67
2022/05/02 01:16:22;;;;;;;;;;;;;;;7.46;68.18;97561.86;109561;1251;68581;-68
2022/05/02 01:18:53;;;;;;;;;;;;;;;7.39;67.36;97558.23;109807;1250;67836;-67
2022/05/02 01:21:25;;;;;;;;;;;;;;;7.34;67.12;97559.55;109805;1250;59733;-68
2022/05/02 01:24:00;;;;;;;;;;;;;;;7.28;65.23;97559.72;109860;1249;59632;-68
2022/05/02 01:26:31;;;;;;;;;;;;;;;7.24;65.91;97559.60;109839;1250;70740;-67
2022/05/02 01:29:01;;;;;;;;;;;;;;;7.20;65.98;97557.58;109751;1249;67756;-70
2022/05/02 01:31:32;;;;;;;;;;;;;;;7.19;64.83;97556.46;109426;1253;69271;-69
2022/05/02 01:34:03;;;;;;;;;;;;;;;7.18;64.18;97555.14;109699;1251;60072;-69
2022/05/02 01:36:33;;;;;;;;;;;;;;;7.18;68.44;97557.55;109424;1254;59752;-68
2022/05/02 01:39:03;;;;;;;;;;;;;;;7.17;68.74;97559.17;109370;1252;71574;-68
2022/05/02 01:41:34;;;;;;;;;;;;;;;7.17;67.33;97553.64;109645;1251;68776;-68
2022/05/02 01:44:04;;;;;;;;;;;;;;;7.16;66.94;97551.59;109603;1252;68638;-68
2022/05/02 01:46:35;;;;;;;;;;;;;;;7.17;66.97;97551.39;109597;1252;59777;-68
2022/05/02 01:49:05;;;;;;;;;;;;;;;7.16;65.69;97554.71;109712;1249;59699;-68
2022/05/02 01:51:35;;;;;;;;;;;;;;;7.15;64.72;97546.23;109595;1252;72350;-70
2022/05/02 01:54:05;;;;;;;;;;;;;;;7.19;65.14;97547.45;109537;1252;68743;-68
2022/05/02 01:56:35;;;;;;;;;;;;;;;7.23;65.59;97546.67;109702;1250;68649;-67
2022/05/02 01:59:05;;;;;;;;;;;;;;;7.26;65.92;97547.04;109695;1252;59761;-67
2022/05/02 02:01:35;;;;;;;;;;;;;;;7.28;65.87;97548.12;109644;1251;59777;-69
2022/05/02 02:06:53;;;;;;;;;;;;;;;7.26;67.15;97545.29;109601;1251;67814;-67
2022/05/02 02:09:23;;;;;;;;;;;;;;;7.22;68.40;97544.31;109665;1250;68492;-69
2022/05/02 02:11:53;;;;;;;;;;;;;;;7.15;66.04;97544.00;109796;1249;59712;-68
2022/05/02 02:14:24;;;;;;;;;;;;;;;7.09;66.27;97541.40;109777;1249;59708;-68
2022/05/02 02:16:54;;;;;;;;;;;;;;;7.03;67.03;97537.73;109721;1250;70823;-67
2022/05/02 02:19:24;;;;;;;;;;;;;;;6.99;66.49;97536.77;109587;1252;67919;-68
2022/05/02 02:22:16;;;;;;;;;;;;;;;6.97;66.11;97533.95;109595;1252;68648;-67
2022/05/02 02:24:46;;;;;;;;;;;;;;;6.96;66.03;97531.19;109665;1251;59718;-70
2022/05/02 02:27:16;;;;;;;;;;;;;;;6.96;66.10;97528.97;109913;1250;59713;-69
2022/05/02 02:29:46;;;;;;;;;;;;;;;6.97;66.79;97533.08;109764;1250;70217;-68
2022/05/02 02:32:16;;;;;;;;;;;;;;;6.97;66.72;97529.95;109855;1250;68574;-68
2022/05/02 02:34:46;;;;;;;;;;;;;;;6.99;67.12;97532.65;109623;1250;69585;-67
2022/05/02 02:37:16;;;;;;;;;;;;;;;7.00;66.29;97529.12;109821;1250;59607;-68
2022/05/02 02:39:46;;;;;;;;;;;;;;;7.00;66.44;97530.64;109865;1250;59702;-70
2022/05/02 02:42:16;;;;;;;;;;;;;;;7.01;67.86;97533.50;109838;1250;71641;-68
2022/05/02 02:44:46;;;;;;;;;;;;;;;7.03;69.76;97540.38;109758;1251;66787;-68
2022/05/02 02:47:16;;;;;;;;;;;;;;;7.00;70.63;97539.51;109847;1250;69285;-67
2022/05/02 02:49:46;;;;;;;;;;;;;;;6.94;69.98;97536.91;109831;1250;59742;-69
2022/05/02 02:52:16;;;;;;;;;;;;;;;6.86;68.80;97540.10;109620;1249;59686;-67
2022/05/02 02:54:45;;;;;;;;;;;;;;;6.78;69.32;97539.84;109542;1250;71395;-68
2022/05/02 02:57:15;;;;;;;;;;;;;;;6.73;71.21;97543.96;109699;1250;68002;-68
2022/05/02 02:59:45;;;;;;;;;;;;;;;6.68;72.34;97549.96;109610;1250;68788;-68
2022/05/02 03:02:14;;;;;;;;;;;;;;;6.61;72.44;97552.38;109759;1249;59712;-67
2022/05/02 03:07:33;;;;;;;;;;;;;;;6.53;70.96;97545.05;109797;1249;71487;-68
2022/05/02 03:10:04;;;;;;;;;;;;;;;6.50;70.83;97547.11;109753;1250;67589;-68
2022/05/02 03:12:33;;;;;;;;;;;;;;;6.45;69.84;97547.39;109880;1250;68479;-68
2022/05/02 03:15:03;;;;;;;;;;;;;;;6.37;70.69;97547.13;109577;1250;59782;-67
2022/05/02 03:17:32;;;;;;;;;;;;;;;6.26;71.39;97548.02;109664;1250;59652;-67
2022/05/02 03:20:01;;;;;;;;;;;;;;;6.19;73.47;97547.75;109831;1250;70767;-68
2022/05/02 03:22:30;;;;;;;;;;;;;;;6.13;75.41;97551.85;109830;1250;67890;-67
2022/05/02 03:25:00;;;;;;;;;;;;;;;6.08;74.25;97552.79;109612;1250;69347;-67
2022/05/02 03:27:29;;;;;;;;;;;;;;;6.05;73.67;97555.38;109599;1250;59742;-67
2022/05/02 03:29:59;;;;;;;;;;;;;;;6.01;74.72;97555.94;109619;1250;59708;-69
2022/05/02 03:32:28;;;;;;;;;;;;;;;5.96;74.17;97551.02;109790;1250;71728;-69
2022/05/02 03:34:58;;;;;;;;;;;;;;;5.94;75.13;97554.57;109810;1250;69089;-67
2022/05/02 03:37:26;;;;;;;;;;;;;;;5.92;75.19;97555.54;109849;1250;68539;-68
2022/05/02 03:39:57;;;;;;;;;;;;;;;5.92;74.88;97558.85;109655;1249;59779;-67
2022/05/02 03:42:26;;;;;;;;;;;;;;;5.91;75.15;97555.05;109803;1249;59720;-69
2022/05/02 03:44:56;;;;;;;;;;;;;;;5.93;75.18;97559.13;109849;1249;71442;-67
2022/05/02 03:47:25;;;;;;;;;;;;;;;5.95;75.48;97560.38;109734;1250;68588;-67
2022/05/02 03:49:55;;;;;;;;;;;;;;;5.98;74.84;97563.00;109730;1249;69403;-69
2022/05/02 03:52:24;;;;;;;;;;;;;;;6.03;75.65;97563.82;109662;1250;59787;-66
2022/05/02 03:54:53;;;;;;;;;;;;;;;6.04;75.93;97561.98;109580;1251;59690;-68
2022/05/02 03:57:23;;;;;;;;;;;;;;;6.06;76.29;97568.27;109753;1249;70628;-66
2022/05/02 03:59:52;;;;;;;;;;;;;;;6.10;76.41;97571.89;109489;1253;68655;-67
2022/05/02 04:02:22;;;;;;;;;;;;;;;6.15;76.07;97577.17;109656;1250;68698;-68
2022/05/02 04:04:53;;;;;;;;;;;;;;;6.22;75.86;97576.64;109737;1250;59774;-66
2022/05/02 04:07:24;;;;;;;;;;;;;;;6.33;76.10;97578.84;109625;1250;60107;-68
2022/05/02 04:09:54;;;;;;;;;;;;;;;6.45;75.74;97579.90;109515;1250;71679;-67
2022/05/02 04:12:24;;;;;;;;;;;;;;;6.58;75.41;97581.95;109558;1251;67836;-68
2022/05/02 04:14:53;;;;;;;;;;;;;;;6.71;75.37;97583.17;109616;1250;68743;-67
2022/05/02 04:17:22;;;;;;;;;;;;;;;6.79;75.42;97586.77;109573;1250;59766;-69
2022/05/02 04:19:51;;;;;;;;;;;;;;;6.85;74.34;97586.58;109691;1251;59795;-68
2022/05/02 04:22:21;;;;;;;;;;;;;;;6.95;73.88;97588.98;109735;1249;71642;-69
2022/05/02 04:24:50;;;;;;;;;;;;;;;7.05;72.88;97589.83;109685;1249;68263;-69
2022/05/02 04:27:19;;;;;;;;;;;;;;;7.15;72.17;97587.52;109665;1250;68716;-66
2022/05/02 04:29:48;;;;;;;;;;;;;;;7.24;72.79;97581.48;109684;1249;59719;-65
2022/05/02 04:32:17;;;;;;;;;;;;;;;7.32;73.93;97573.57;109695;1249;59792;-67
2022/05/02 04:34:47;;;;;;;;;;;;;;;7.39;73.67;97572.83;109702;1250;70803;-68
2022/05/02 04:37:16;;;;;;;;;;;;;;;7.45;72.90;97570.58;109803;1250;67580;-67
2022/05/02 04:39:46;;;;;;;;;;;;;;;7.53;72.54;97571.45;109786;1250;69484;-67
2022/05/02 04:42:15;;;;;;;;;;;;;;;7.67;72.29;97570.48;109784;1250;59700;-68
2022/05/02 04:44:44;;;;;;;;;;;;;;;7.84;72.33;97570.51;109603;1251;59708;-70
2022/05/02 04:47:14;;;;;;;;;;;;;;;8.01;71.80;97571.79;109875;1249;70800;-68
2022/05/02 04:49:44;;;;;;;;;;;;;;;8.19;70.98;97571.54;109723;1250;68085;-68
2022/05/02 04:52:13;;;;;;;;;;;;;;;8.44;71.02;97570.38;109777;1250;68484;-67
2022/05/02 04:54:42;;;;;;;;;;;;;;;8.75;70.75;97571.22;109749;1250;59726;-68
2022/05/02 04:57:12;;;;;;;;;;;;;;;9.07;69.97;97568.67;109872;1250;59692;-68
2022/05/02 04:59:41;;;;;;;;;;;;;;;9.32;68.78;97571.41;109813;1249;71380;-66
2022/05/02 05:02:10;;;;;;;;;;;;;;;9.59;67.50;97568.09;109809;1249;67918;-67
2022/05/02 05:04:39;;;;;;;;;;;;;;;9.83;66.59;97561.77;109846;1250;68560;-69
2022/05/02 05:07:09;;;;;;;;;;;;;;;10.10;65.78;97562.75;109699;1250;60147;-68
2022/05/02 05:09:38;;;;;;;;;;;;;;;10.37;63.90;97563.34;109692;1250;59707;-68
2022/05/02 05:12:17;;;;;;;;;;;;;;;10.71;64.86;97564.82;109895;1249;70586;-68
2022/05/02 05:17:59;;;;;;;;;;;;;;;11.24;60.50;97558.38;109808;1248;68697;-67
2022/05/02 05:20:46;;;;;;;;;;;;;;;11.45;61.01;97554.89;109808;1250;59763;-68
2022/05/02 05:23:17;;;;;;;;;;;;;;;11.93;62.78;97549.92;109698;1250;59768;-67
2022/05/02 05:25:49;;;;;;;;;;;;;;;12.37;62.17;97554.27;109789;1249;72826;-68
2022/05/02 05:28:33;;;;;;;;;;;;;;;12.73;59.23;97547.34;109732;1249;68734;-68
2022/05/02 05:31:22;;;;;;;;;;;;;;;13.20;60.21;97546.98;109736;1250;68563;-68
2022/05/02 05:34:04;;;;;;;;;;;;;;;13.50;57.36;97547.28;109867;1250;59785;-67
2022/05/02 05:36:48;;;;;;;;;;;;;;;13.94;58.44;97546.09;109858;1250;59685;-68
2022/05/02 05:39:43;;;;;;;;;;;;;;;14.37;57.25;97551.50;109850;1250;71543;-67
2022/05/02 05:42:17;;;;;;;;;;;;;;;14.83;53.85;97549.33;109773;1250;67967;-64
2022/05/02 05:44:55;;;;;;;;;;;;;;;15.19;53.07;97546.08;109791;1250;69423;-68
2022/05/02 05:47:45;;;;;;;;;;;;;;;15.65;54.10;97541.96;109781;1250;59705;-68
2022/05/02 05:50:23;;;;;;;;;;;;;;;16.03;50.35;97542.86;109866;1250;59748;-69
2022/05/02 05:52:53;;;;;;;;;;;;;;;16.23;50.30;97544.70;109811;1249;71053;-66
2022/05/02 05:55:43;;;;;;;;;;;;;;;16.41;48.37;97543.86;109771;1250;68420;-68
2022/05/02 05:58:37;;;;;;;;;;;;;;;16.59;47.27;97541.17;109393;1250;68808;-67
2022/05/02 06:01:15;;;;;;;;;;;;;;;16.88;48.05;97542.82;109794;1250;59765;-66
2022/05/02 06:03:51;;;;;;;;;;;;;;;17.02;44.94;97542.79;109601;1250;59685;-64
2022/05/02 06:06:22;;;;;;;;;;;;;;;16.98;43.66;97537.58;109990;1250;70789;-68
2022/05/02 06:08:52;;;;;;;;;;;;;;;16.98;44.05;97535.33;109863;1250;67781;-68
2022/05/02 06:11:22;;;;;;;;;;;;;;;17.07;43.06;97537.41;109753;1249;69526;-64
2022/05/02 06:13:53;;;;;;;;;;;;;;;17.12;42.83;97540.14;109703;1250;59745;-68
2022/05/02 06:19:15;;;;;;;;;;;;;;;17.41;42.12;97536.56;109916;1249;71614;-64
2022/05/02 06:21:49;;;;;;;;;;;;;;;17.57;41.79;97533.36;109739;1250;68587;-65
2022/05/02 06:24:19;;;;;;;;;;;;;;;17.77;41.13;97529.45;109765;1250;69427;-67
2022/05/02 06:26:48;;;;;;;;;;;;;;;17.86;40.53;97530.55;109712;1250;59647;-64
2022/05/02 06:29:18;;;;;;;;;;;;;;;17.98;40.10;97530.73;109735;1250;60046;-68
2022/05/02 06:31:50;;;;;;;;;;;;;;;18.12;39.83;97528.10;109673;1250;70759;-65
2022/05/02 06:34:25;;;;;;;;;;;;;;;18.21;39.72;97529.57;109784;1250;67855;-68
2022/05/02 06:36:56;;;;;;;;;;;;;;;18.25;38.44;97526.70;109792;1250;69551;-67
2022/05/02 06:39:25;;;;;;;;;;;;;;;18.50;39.13;97528.16;109774;1250;59789;-68
2022/05/02 06:42:26;;;;;;;;;;;;;;;18.69;38.35;97524.08;109761;1250;59699;-70
2022/05/02 06:45:08;;;;;;;;;;;;;;;18.85;37.59;97520.48;109090;1257;71673;-67
2022/05/02 06:47:52;;;;;;;;;;;;;;;19.12;38.09;97516.90;109214;1258;68529;-70
2022/05/02 06:50:23;;;;;;;;;;;;;;;19.44;37.02;97516.58;109099;1257;69513;-70
2022/05/02 06:53:12;;;;;;;;;;;;;;;19.59;36.30;97517.20;108866;1260;59793;-69
2022/05/02 06:55:49;;;;;;;;;;;;;;;19.68;36.04;97514.70;109100;1258;59743;-69
2022/05/02 06:58:50;;;;;;;;;;;;;;;19.74;34.76;97511.75;109104;1258;70907;-67
2022/05/02 07:01:19;;;;;;;;;;;;;;;19.68;34.26;97509.86;108317;1263;67130;-67
2022/05/02 07:04:05;;;;;;;;;;;;;;;19.60;33.77;97512.06;108451;1264;68750;-67
2022/05/02 07:06:34;;;;;;;;;;;;;;;19.69;34.89;97511.58;108538;1264;59722;-68
2022/05/02 07:09:04;;;;;;;;;;;;;;;19.64;34.18;97512.51;108353;1264;59739;-67
2022/05/02 07:11:44;;;;;;;;;;;;;;;19.64;34.58;97511.22;108351;1264;71917;-68
2022/05/02 07:14:28;;;;;;;;;;;;;;;19.84;34.63;97506.64;108366;1263;67854;-68
2022/05/02 07:17:02;;;;;;;;;;;;;;;19.95;34.81;97511.02;108365;1264;68689;-71
2022/05/02 07:19:40;;;;;;;;;;;;;;;20.20;34.88;97508.60;108189;1264;59742;-67
2022/05/02 07:22:11;;;;;;;;;;;;;;;20.40;35.06;97511.92;109153;1255;59716;-74
2022/05/02 07:24:58;;;;;;;;;;;;;;;20.66;34.76;97510.27;109267;1257;71581;-71
2022/05/02 07:27:29;;;;;;;;;;;;;;;20.75;33.93;97510.13;109285;1257;68627;-71
2022/05/02 07:29:59;;;;;;;;;;;;;;;20.74;34.01;97505.76;109210;1256;69407;-71
2022/05/02 07:32:30;;;;;;;;;;;;;;;20.77;33.63;97505.08;109112;1259;59779;-71
2022/05/02 07:35:00;;;;;;;;;;;;;;;21.00;33.47;97503.59;109179;1256;59782;-72
2022/05/02 07:37:34;;;;;;;;;;;;;;;21.07;31.99;97502.71;109504;1250;70597;-70
2022/05/02 07:40:06;;;;;;;;;;;;;;;21.08;31.85;97499.26;109872;1250;67787;-69
2022/05/02 07:42:39;;;;;;;;;;;;;;;21.19;32.68;97497.35;109721;1250;69494;-71
2022/05/02 07:45:10;;;;;;;;;;;;;;;21.41;31.72;97499.19;109709;1250;59643;-70
2022/05/02 07:47:41;;;;;;;;;;;;;;;21.65;30.95;97499.44;109771;1250;59704;-71
2022/05/02 07:50:13;;;;;;;;;;;;;;;21.95;31.15;97500.38;109962;1250;71538;-71
2022/05/02 07:52:45;;;;;;;;;;;;;;;22.02;30.08;97504.30;109800;1250;69037;-70
2022/05/02 07:55:14;;;;;;;;;;;;;;;22.13;30.61;97503.25;109767;1250;68656;-72
2022/05/02 07:57:45;;;;;;;;;;;;;;;22.09;30.24;97502.58;109839;1249;59742;-71
2022/05/02 08:00:17;;;;;;;;;;;;;;;21.78;30.99;97502.67;109827;1251;59651;-70
2022/05/02 08:02:47;;;;;;;;;;;;;;;22.17;31.05;97505.42;109661;1250;70825;-71
2022/05/02 08:05:20;;;;;;;;;;;;;;;21.94;30.66;97499.55;109687;1250;67813;-72
2022/05/02 08:07:52;;;;;;;;;;;;;;;21.64;31.28;97493.17;109908;1250;68641;-71
2022/05/02 08:10:33;;;;;;;;;;;;;;;21.92;30.66;97489.36;109906;1250;59821;-72
2022/05/02 08:13:15;;;;;;;;;;;;;;;21.61;29.84;97486.62;109744;1250;59742;-72
2022/05/02 08:15:48;;;;;;;;;;;;;;;21.16;29.40;97481.36;110001;1250;69927;-71
2022/05/02 08:18:19;;;;;;;;;;;;;;;20.56;31.00;97485.20;109887;1250;68512;-70
2022/05/02 08:20:56;;;;;;;;;;;;;;;21.05;31.60;97479.64;109948;1250;69033;-71
2022/05/02 08:29:39;;;;;;;;;;;;;;;22.01;29.70;97470.04;109957;1250;71605;-68
2022/05/02 08:32:12;;;;;;;;;;;;;;;22.25;29.01;97470.95;109815;1250;68618;-69
2022/05/02 08:34:41;;;;;;;;;;;;;;;22.18;29.24;97463.95;109926;1250;69357;-70
2022/05/02 08:37:12;;;;;;;;;;;;;;;22.62;28.44;97463.44;109912;1250;59709;-71
2022/05/02 08:39:51;;;;;;;;;;;;;;;22.80;28.50;97459.11;109981;1250;59694;-69
2022/05/02 08:42:29;;;;;;;;;;;;;;;23.15;27.44;97448.77;109958;1250;70375;-72
2022/05/02 08:45:16;;;;;;;;;;;;;;;23.08;27.22;97443.91;109932;1250;67863;-69
2022/05/02 08:48:02;;;;;;;;;;;;;;;22.97;27.52;97440.16;109888;1250;68725;-72
2022/05/02 08:50:57;;;;;;;;;;;;;;;23.30;27.84;97436.27;109945;1250;59637;-69
2022/05/02 08:53:25;;;;;;;;;;;;;;;23.33;27.15;97434.41;109773;1249;59733;-70
2022/05/02 08:56:05;;;;;;;;;;;;;;;23.22;27.69;97432.30;109841;1250;71788;-72
2022/05/02 08:58:42;;;;;;;;;;;;;;;23.56;26.09;97432.40;109885;1249;67822;-73
2022/05/02 09:01:32;;;;;;;;;;;;;;;23.62;25.45;97427.54;109879;1249;68672;-72
2022/05/02 09:04:10;;;;;;;;;;;;;;;22.80;26.30;97427.54;110004;1249;59708;-70
2022/05/02 09:06:38;;;;;;;;;;;;;;;23.33;26.78;97424.61;109360;1250;472417;-69
2022/05/02 09:09:26;;;;;;;;;;;;;;;23.21;26.77;97420.27;109889;1250;71641;-70
2022/05/02 09:12:22;;;;;;;;;;;;;;;23.04;27.79;97417.41;109964;1249;68631;-69
2022/05/02 09:15:13;;;;;;;;;;;;;;;23.59;27.02;97418.47;109669;1250;68884;-70
2022/05/02 09:18:00;;;;;;;;;;;;;;;23.86;25.67;97420.70;109826;1251;59774;-71
2022/05/02 09:20:46;;;;;;;;;;;;;;;24.28;25.18;97415.27;109947;1250;59757;-68
2022/05/02 09:23:30;;;;;;;;;;;;;;;24.44;25.18;97413.23;109705;1250;72031;-68
2022/05/02 09:26:08;;;;;;;;;;;;;;;25.06;24.48;97412.40;109925;1249;68581;-69
2022/05/02 09:28:40;;;;;;;;;;;;;;;25.30;23.22;97408.46;109930;1250;68795;-69
2022/05/02 09:31:20;;;;;;;;;;;;;;;25.03;23.27;97399.03;109702;1250;59699;-69
2022/05/02 09:34:09;;;;;;;;;;;;;;;25.01;22.81;97394.36;109934;1250;59707;-70
2022/05/02 09:36:58;;;;;;;;;;;;;;;25.97;23.13;97394.23;109988;1250;71436;-70
2022/05/02 09:39:47;;;;;;;;;;;;;;;26.71;22.52;97392.61;109886;1250;68725;-70
2022/05/02 09:42:35;;;;;;;;;;;;;;;27.25;20.96;97387.32;109822;1251;67696;-70
2022/05/02 09:50:48;;;;;;;;;;;;;;;27.15;20.75;97377.62;109987;1250;71724;-69
2022/05/02 09:53:17;;;;;;;;;;;;;;;26.93;21.12;97374.30;109728;1250;68680;-69
2022/05/02 09:58:48;;;;;;;;;;;;;;;25.56;22.30;97368.78;109777;1250;59755;-69
2022/05/02 10:01:21;;;;;;;;;;;;;;;24.77;23.15;97362.27;109832;1250;59691;-70
2022/05/02 10:04:08;;;;;;;;;;;;;;;24.15;24.20;97357.30;109984;1250;71561;-70
2022/05/02 10:06:42;;;;;;;;;;;;;;;23.58;24.81;97357.43;109896;1250;67922;-69
2022/05/02 10:09:17;;;;;;;;;;;;;;;23.21;25.41;97354.51;109732;1250;69464;-69
2022/05/02 10:12:10;;;;;;;;;;;;;;;23.66;24.59;97351.05;109996;1250;59764;-68
2022/05/02 10:14:58;;;;;;;;;;;;;;;23.56;24.06;97344.92;109940;1250;59713;-68
2022/05/02 10:17:45;;;;;;;;;;;;;;;24.29;25.62;97338.20;109872;1249;71386;-68
2022/05/02 10:20:20;;;;;;;;;;;;;;;24.83;24.86;97337.16;109946;1249;67857;-69
2022/05/02 10:22:58;;;;;;;;;;;;;;;25.10;24.15;97337.45;109834;1250;69612;-69
2022/05/02 10:25:35;;;;;;;;;;;;;;;25.24;23.06;97339.17;109914;1250;59768;-68
2022/05/02 10:28:07;;;;;;;;;;;;;;;25.86;23.42;97340.07;110026;1249;59768;-70
2022/05/02 10:30:47;;;;;;;;;;;;;;;26.64;21.68;97331.45;109894;1250;71587;-70
2022/05/02 10:33:21;;;;;;;;;;;;;;;27.34;21.50;97332.90;109930;1249;68065;-69
2022/05/02 10:35:51;;;;;;;;;;;;;;;27.74;20.17;97327.18;109988;1249;68816;-69
2022/05/02 10:38:24;;;;;;;;;;;;;;;28.02;20.23;97325.65;109720;1249;59750;-69
2022/05/02 10:40:56;;;;;;;;;;;;;;;28.41;19.92;97326.39;109822;1250;59759;-71
2022/05/02 10:43:26;;;;;;;;;;;;;;;28.09;18.98;97325.27;109942;1249;71716;-68
2022/05/02 10:45:55;;;;;;;;;;;;;;;27.72;18.67;97323.32;109908;1249;68227;-70
2022/05/02 10:48:31;;;;;;;;;;;;;;;27.83;19.27;97320.65;109915;1250;68720;-69
2022/05/02 10:51:29;;;;;;;;;;;;;;;27.73;19.53;97316.90;109960;1249;59751;-69
2022/05/02 10:54:37;;;;;;;;;;;;;;;27.67;19.75;97308.33;109673;1252;59683;-67
2022/05/02 10:57:17;;;;;;;;;;;;;;;26.59;20.25;97307.63;108963;1258;71628;-69
2022/05/02 10:59:51;;;;;;;;;;;;;;;26.54;20.46;97305.88;108955;1260;68449;-68
2022/05/02 11:02:23;;;;;;;;;;;;;;;26.06;20.75;97309.50;109515;1252;69563;-71
2022/05/02 11:04:58;;;;;;;;;;;;;;;25.52;21.78;97306.20;109842;1251;59823;-70
2022/05/02 11:07:31;;;;;;;;;;;;;;;24.97;21.97;97302.10;109784;1250;59769;-70
2022/05/02 11:10:04;;;;;;;;;;;;;;;24.77;22.24;97295.55;109965;1250;71526;-70
2022/05/02 11:12:41;;;;;;;;;;;;;;;24.67;23.20;97288.45;109533;1252;67972;-70
2022/05/02 11:15:17;;;;;;;;;;;;;;;24.54;23.34;97290.23;109675;1250;69638;-69
2022/05/02 11:18:04;;;;;;;;;;;;;;;24.07;24.08;97289.58;109675;1252;59763;-70
2022/05/02 11:20:46;;;;;;;;;;;;;;;24.02;24.37;97288.98;109797;1253;59705;-70
2022/05/02 11:23:31;;;;;;;;;;;;;;;23.81;24.36;97287.84;109791;1252;70613;-70
2022/05/02 11:26:01;;;;;;;;;;;;;;;23.57;26.01;97288.92;109894;1252;68272;-70
2022/05/02 11:28:34;;;;;;;;;;;;;;;23.64;26.33;97285.18;109848;1250;69535;-70
2022/05/02 11:31:17;;;;;;;;;;;;;;;23.77;25.61;97283.76;109596;1251;59692;-70
2022/05/02 11:33:51;;;;;;;;;;;;;;;23.92;25.47;97277.98;109398;1253;59703;-70
2022/05/02 11:36:24;;;;;;;;;;;;;;;23.85;25.99;97279.11;109853;1252;71980;-70
2022/05/02 11:39:03;;;;;;;;;;;;;;;23.73;25.93;97279.13;109800;1250;69035;-69
2022/05/02 11:41:41;;;;;;;;;;;;;;;23.73;26.09;97275.13;109773;1253;69420;-69
2022/05/02 11:44:15;;;;;;;;;;;;;;;23.66;25.94;97276.42;109784;1250;59757;-69
2022/05/02 11:46:50;;;;;;;;;;;;;;;23.46;26.61;97269.22;109710;1251;59700;-70
2022/05/02 11:49:36;;;;;;;;;;;;;;;22.99;27.03;97268.79;109943;1249;70792;-70
2022/05/02 11:52:09;;;;;;;;;;;;;;;22.60;27.77;97270.64;109964;1250;67815;-69
2022/05/02 11:54:42;;;;;;;;;;;;;;;22.37;27.92;97267.55;109930;1249;68636;-67
2022/05/02 11:57:17;;;;;;;;;;;;;;;22.17;27.86;97266.14;109737;1250;59698;-68
2022/05/02 12:00:09;;;;;;;;;;;;;;;22.17;27.92;97263.37;109813;1250;59713;-69
2022/05/02 12:02:42;;;;;;;;;;;;;;;22.09;28.00;97261.08;109826;1250;71746;-70
2022/05/02 12:05:14;;;;;;;;;;;;;;;21.98;27.66;97260.16;109958;1250;67944;-68
2022/05/02 12:07:43;;;;;;;;;;;;;;;21.66;29.07;97262.02;109853;1249;69519;-70
2022/05/02 12:10:14;;;;;;;;;;;;;;;21.56;30.22;97257.23;109821;1249;59775;-71
2022/05/02 12:12:50;;;;;;;;;;;;;;;21.53;28.77;97251.54;109750;1249;59675;-69
2022/05/02 12:15:19;;;;;;;;;;;;;;;21.53;29.30;97249.94;109757;1250;72173;-68
2022/05/02 12:17:51;;;;;;;;;;;;;;;21.54;29.14;97244.04;109769;1250;69283;-69
2022/05/02 12:20:24;;;;;;;;;;;;;;;21.55;29.87;97241.26;109764;1249;69452;-69
2022/05/02 12:23:05;;;;;;;;;;;;;;;21.46;29.61;97241.51;109538;1252;59679;-69
2022/05/02 12:25:34;;;;;;;;;;;;;;;21.44;29.95;97240.31;109811;1249;59700;-70
2022/05/02 12:28:06;;;;;;;;;;;;;;;21.39;30.86;97240.92;109935;1250;71359;-71
2022/05/02 12:30:35;;;;;;;;;;;;;;;21.38;29.83;97239.05;109742;1252;67217;-69
2022/05/02 12:33:05;;;;;;;;;;;;;;;21.36;29.24;97235.15;109681;1250;68461;-70
2022/05/02 12:35:36;;;;;;;;;;;;;;;21.26;29.47;97235.77;109661;1250;59701;-69
2022/05/02 12:38:13;;;;;;;;;;;;;;;21.22;29.45;97228.34;109792;1250;59712;-69
2022/05/02 12:40:50;;;;;;;;;;;;;;;21.25;30.14;97225.81;109665;1253;70988;-70
2022/05/02 12:43:32;;;;;;;;;;;;;;;21.28;29.69;97224.01;109842;1251;67700;-69
2022/05/02 12:46:06;;;;;;;;;;;;;;;21.29;30.51;97222.30;109820;1251;69399;-71
2022/05/02 12:48:40;;;;;;;;;;;;;;;21.35;30.18;97221.77;109829;1250;59747;-70
2022/05/02 12:51:16;;;;;;;;;;;;;;;21.34;30.57;97221.76;109851;1252;59680;-69
2022/05/02 12:56:48;;;;;;;;;;;;;;;21.34;29.53;97216.34;109584;1252;68860;-71
2022/05/02 13:02:34;;;;;;;;;;;;;;;21.63;30.27;97207.44;109498;1253;59759;-70
2022/05/02 13:05:06;;;;;;;;;;;;;;;21.88;29.66;97204.81;109601;1250;59765;-70
2022/05/02 13:07:55;;;;;;;;;;;;;;;22.26;29.20;97202.61;109711;1250;72187;-71
2022/05/02 13:10:25;;;;;;;;;;;;;;;22.81;27.86;97201.88;109911;1250;68591;-70
2022/05/02 13:12:58;;;;;;;;;;;;;;;22.99;26.98;97194.64;109614;1250;69252;-70
2022/05/02 13:15:28;;;;;;;;;;;;;;;22.95;28.10;97194.81;109618;1252;59777;-69
2022/05/02 13:17:59;;;;;;;;;;;;;;;22.84;27.81;97195.87;109860;1249;59751;-72
2022/05/02 13:21:05;;;;;;;;;;;;;;;22.74;27.42;97198.73;109872;1249;71554;-72
2022/05/02 13:23:40;;;;;;;;;;;;;;;22.56;25.56;97197.10;109962;1249;68593;-67
2022/05/02 13:26:27;;;;;;;;;;;;;;;22.78;26.48;97194.84;109501;1252;68803;-69
2022/05/02 13:29:22;;;;;;;;;;;;;;;23.22;25.63;97193.96;109951;1249;59687;-70
2022/05/02 13:32:02;;;;;;;;;;;;;;;23.34;26.46;97193.05;109727;1250;59759;-70
2022/05/02 13:34:44;;;;;;;;;;;;;;;23.24;26.08;97189.88;109715;1253;70785;-69
2022/05/02 13:37:13;;;;;;;;;;;;;;;22.91;26.58;97188.10;109781;1249;68611;-69
2022/05/02 13:40:04;;;;;;;;;;;;;;;22.74;26.61;97185.84;109693;1251;68599;-71
2022/05/02 13:42:52;;;;;;;;;;;;;;;22.45;28.26;97185.80;109814;1250;59763;-69
2022/05/02 13:45:26;;;;;;;;;;;;;;;22.35;27.73;97184.25;109630;1250;59750;-68
2022/05/02 13:48:08;;;;;;;;;;;;;;;22.27;27.38;97181.30;109804;1250;70839;-69
2022/05/02 13:51:00;;;;;;;;;;;;;;;22.33;27.50;97183.65;109790;1250;67915;-70
2022/05/02 13:53:42;;;;;;;;;;;;;;;22.15;27.51;97180.52;109916;1250;68782;-67